Prievidza, Slovakia

3:53 PM CEST on July 23, 2016 (GMT +0200)
LZPE | | Change Station

Elev 853 ft 48.77 °N, 18.59 °E | Updated 39 seconds ago

Scattered Clouds
Scattered Clouds
88.6 °F
Feels Like 89 °F
N
3.0
Wind Variable Wind from NNW
Gusts 9.0 mph

Today
High -- | Low -- °F
--% Chance of Precip.
Yesterday
High -- | Low -- °F
Precip. -- in
Pressure 30.04 in
Visibility 6.2 miles
Clouds Scattered Clouds 5100 ft
Heat Index 89 °F
Dew Point 62 °F
Humidity 41%
Rainfall in
Snow Depth Not available.
5:08 AM 8:35 PM
Waning Gibbous, 85% visible
METAR LZZI 231330Z 02005KT 9999 SCT051 28/15 Q1017
Pressure 30.04 in
Visibility 6.2 miles
Clouds Scattered Clouds 5100 ft
Heat Index 89 °F
Dew Point 62 °F
Humidity 41%
Rainfall in
Snow Depth Not available.
5:08 AM 8:35 PM
Waning Gibbous, 85% visible
METAR LZZI 231330Z 02005KT 9999 SCT051 28/15 Q1017

10-Day Weather Forecast

×

Almanac

Astronomy

Jul. 23, 2016 Rise Set
Actual Time
Civil Twilight
Nautical Twilight
Astronomical Twilight
Moon
Length of Visible Light
Length of Day
Tomorrow will be .
, % of the Moon is Illuminated

Today's Extremes

Country Highs Country Lows

Community

WunderPhotos

Upload Photos

1,926,818 photos uploaded!

WunderBlog® & News

Nearby

Air Quality

  Air Quality AQ Index Pollutant
Not available.

Snow Depth

Station Depth Elevation

Earthquake Activity

City Distance Mag. Time & Date
Minimum magnitude displayed is 2.5.

Coastal Water Temperatures

Place Temperature

Stations

Nearby Weather Stations

Station Location Temp. Windchill Dew Point Humidity Wind Precip. Elev Updated Type